Time;durP1;ratioP1;P1;durP2;ratioP2;P2;SDS_P1;SDS_P2;PMS_P1;PMS_P2;Temp;Humidity;BMP_temperature;BMP_pressure;BME280_temperature;BME280_humidity;BME280_pressure;Samples;Min_cycle;Max_cycle;Signal;HPM_P1;HPM_P2
2021/08/19 00:00:10;;;;;;;6.28;3.50;;;16.10;74.50;;;;;;5004963;28;96499;-55
2021/08/19 00:02:43;;;;;;;4.68;3.40;;;16.10;74.60;;;;;;5025063;27;96611;-51
2021/08/19 00:05:13;;;;;;;;;;;16.20;74.70;;;;;;5025846;27;96267;-54
2021/08/19 00:07:43;;;;;;;5.32;3.17;;;16.20;74.70;;;;;;5026413;28;95743;-51
2021/08/19 00:10:14;;;;;;;4.97;3.60;;;16.30;74.80;;;;;;5026941;27;95702;-54
2021/08/19 00:12:44;;;;;;;5.07;3.50;;;16.40;74.80;;;;;;5025513;28;95875;-54
2021/08/19 00:15:18;;;;;;;7.45;3.80;;;16.40;74.80;;;;;;5003338;28;97294;-50
2021/08/19 00:17:49;;;;;;;;;;;16.50;74.90;;;;;;5026461;28;95743;-50
2021/08/19 00:20:20;;;;;;;5.32;3.42;;;16.50;74.90;;;;;;5024649;27;97075;-52
2021/08/19 00:22:52;;;;;;;3.75;2.95;;;16.60;74.90;;;;;;5024514;28;96723;-49
2021/08/19 00:25:24;;;;;;;3.72;3.08;;;16.60;74.90;;;;;;5006836;28;96522;-52
2021/08/19 00:27:55;;;;;;;3.75;2.70;;;16.60;74.90;;;;;;5026187;28;95724;-51
2021/08/19 00:30:26;;;;;;;4.72;2.97;;;16.70;74.90;;;;;;5021052;27;95418;-52
2021/08/19 00:32:58;;;;;;;5.45;2.70;;;16.70;74.90;;;;;;5022009;27;103824;-52
2021/08/19 00:35:29;;;;;;;5.45;2.70;;;16.80;75.20;;;;;;5037227;27;95872;-50
2021/08/19 00:38:01;;;;;;;2.92;2.45;;;16.80;74.80;;;;;;5022494;27;96141;-54
2021/08/19 00:40:33;;;;;;;3.40;3.08;;;16.80;74.40;;;;;;5021210;27;95244;-56
2021/08/19 00:43:07;;;;;;;4.65;3.17;;;16.80;73.60;;;;;;5014701;27;97022;-55
2021/08/19 00:45:40;;;;;;;4.40;2.35;;;16.90;74.40;;;;;;4987006;27;96098;-54
2021/08/19 00:48:10;;;;;;;5.03;3.05;;;16.90;73.20;;;;;;5023743;27;98180;-53
2021/08/19 00:50:44;;;;;;;3.88;2.47;;;16.90;72.90;;;;;;5024129;27;95677;-56
2021/08/19 00:53:15;;;;;;;3.00;2.33;;;16.90;72.80;;;;;;5024563;27;96351;-52
2021/08/19 00:55:48;;;;;;;3.50;2.42;;;16.90;72.80;;;;;;5023889;27;97139;-53
2021/08/19 00:58:19;;;;;;;4.85;2.75;;;17.00;73.10;;;;;;5025483;27;96888;-52
2021/08/19 01:00:49;;;;;;;3.47;2.47;;;17.00;73.40;;;;;;5021892;28;95863;-56
2021/08/19 01:03:20;;;;;;;4.10;2.53;;;17.10;73.70;;;;;;5025020;27;97346;-52
2021/08/19 01:05:51;;;;;;;2.85;2.25;;;17.10;74.00;;;;;;5024456;27;95625;-51
2021/08/19 01:08:20;;;;;;;3.33;2.40;;;17.20;74.20;;;;;;5023828;27;96081;-54
2021/08/19 01:10:51;;;;;;;3.75;2.30;;;17.30;74.40;;;;;;5024525;27;95794;-55
2021/08/19 01:13:21;;;;;;;3.08;2.53;;;17.40;74.80;;;;;;5023659;27;96462;-53
2021/08/19 01:15:50;;;;;;;3.35;2.20;;;17.50;74.90;;;;;;5019976;27;96224;-50
2021/08/19 01:18:21;;;;;;;2.77;2.00;;;17.60;74.60;;;;;;5024700;27;95746;-54
2021/08/19 01:20:55;;;;;;;2.78;2.10;;;17.60;74.60;;;;;;5024879;27;96401;-51
2021/08/19 01:23:27;;;;;;;3.00;2.10;;;17.70;74.50;;;;;;5025432;27;96758;-47
2021/08/19 01:25:58;;;;;;;2.35;1.88;;;17.90;74.60;;;;;;5024317;27;95984;-48
2021/08/19 01:28:30;;;;;;;3.10;2.13;;;17.90;74.00;;;;;;5024273;27;96126;-49
2021/08/19 01:31:01;;;;;;;2.90;1.95;;;18.00;73.70;;;;;;5018641;27;96123;-50
2021/08/19 01:33:34;;;;;;;2.33;2.00;;;18.10;73.70;;;;;;5023701;27;97011;-48
2021/08/19 01:36:04;;;;;;;3.15;1.85;;;18.10;73.60;;;;;;5023416;27;95965;-50
2021/08/19 01:38:35;;;;;;;3.13;1.98;;;18.20;73.40;;;;;;5024748;27;95903;-56
2021/08/19 01:41:08;;;;;;;3.35;1.80;;;18.30;72.80;;;;;;5024678;27;95967;-53
2021/08/19 01:43:44;;;;;;;2.80;2.10;;;18.30;72.60;;;;;;5017066;27;95878;-55
2021/08/19 01:46:15;;;;;;;1.75;1.63;;;18.50;73.00;;;;;;4989733;28;96204;-55
2021/08/19 01:48:46;;;;;;;;;;;18.50;73.20;;;;;;5023706;27;97100;-57
2021/08/19 01:51:22;;;;;;;2.03;1.70;;;18.60;73.10;;;;;;5008276;28;96125;-59
2021/08/19 01:53:52;;;;;;;2.00;1.60;;;18.70;73.10;;;;;;5023961;27;95909;-57
2021/08/19 01:56:24;;;;;;;1.90;1.70;;;18.80;72.80;;;;;;5024368;28;95889;-49
2021/08/19 01:58:57;;;;;;;3.60;1.35;;;18.80;72.50;;;;;;5025100;27;95705;-56
2021/08/19 02:01:28;;;;;;;1.67;1.35;;;18.90;72.30;;;;;;5018172;28;95768;-56
2021/08/19 02:04:00;;;;;;;1.50;1.40;;;19.00;72.20;;;;;;5021016;27;95901;-53
2021/08/19 02:06:30;;;;;;;2.05;1.58;;;19.00;72.40;;;;;;5022274;27;95716;-53
2021/08/19 02:08:59;;;;;;;3.25;1.50;;;19.10;72.60;;;;;;5023787;27;96242;-53
2021/08/19 02:11:30;;;;;;;1.70;1.60;;;19.20;71.70;;;;;;4989137;28;95404;-53
2021/08/19 02:14:00;;;;;;;2.33;1.55;;;19.30;71.40;;;;;;5024962;28;98324;-56
2021/08/19 02:16:31;;;;;;;1.73;1.40;;;19.40;71.20;;;;;;5019407;28;95989;-57
2021/08/19 02:19:02;;;;;;;1.33;1.20;;;19.70;70.90;;;;;;5023534;28;96470;-57
2021/08/19 02:21:37;;;;;;;1.85;1.73;;;19.80;70.30;;;;;;5022467;27;95725;-57
2021/08/19 02:24:08;;;;;;;1.15;1.05;;;20.00;70.00;;;;;;5024042;27;97260;-52
2021/08/19 02:26:39;;;;;;;1.13;1.02;;;20.20;69.50;;;;;;5023195;27;96531;-54
2021/08/19 02:29:10;;;;;;;;;;;20.30;69.00;;;;;;5021137;27;96341;-52
2021/08/19 02:31:42;;;;;;;2.63;1.70;;;20.40;67.40;;;;;;5018963;27;95823;-50
2021/08/19 02:34:12;;;;;;;2.20;1.30;;;20.30;66.30;;;;;;5023482;27;96003;-56
2021/08/19 02:36:43;;;;;;;1.48;1.30;;;20.40;67.10;;;;;;5012782;28;97359;-49
2021/08/19 02:39:14;;;;;;;;;;;20.50;67.00;;;;;;5024281;28;96582;-49
2021/08/19 02:41:44;;;;;;;1.77;1.48;;;20.60;66.90;;;;;;5025283;27;95663;-50
2021/08/19 02:44:15;;;;;;;4.07;1.55;;;20.70;66.80;;;;;;5015500;28;96329;-50
2021/08/19 02:46:45;;;;;;;1.53;1.43;;;20.80;66.60;;;;;;5013242;27;96414;-53
2021/08/19 02:49:16;;;;;;;1.73;1.20;;;20.90;67.30;;;;;;5023877;27;96032;-50
2021/08/19 02:51:47;;;;;;;1.67;1.08;;;21.00;66.90;;;;;;5023978;27;95859;-50
2021/08/19 02:54:17;;;;;;;;;;;21.10;67.10;;;;;;5005104;28;96734;-50
2021/08/19 02:56:47;;;;;;;1.45;1.08;;;21.10;67.00;;;;;;5024118;27;95738;-50
2021/08/19 02:59:18;;;;;;;1.23;1.13;;;21.20;67.00;;;;;;5023962;28;95274;-56
2021/08/19 03:01:48;;;;;;;1.52;1.42;;;21.30;67.00;;;;;;5019699;27;97990;-50
2021/08/19 03:04:18;;;;;;;1.38;1.20;;;21.40;66.70;;;;;;5022750;27;95899;-51
2021/08/19 03:06:48;;;;;;;1.50;1.40;;;21.50;66.80;;;;;;5022751;27;95360;-52
2021/08/19 03:09:18;;;;;;;1.38;1.00;;;21.50;66.80;;;;;;5003545;28;95945;-57
2021/08/19 03:11:48;;;;;;;1.30;1.25;;;21.70;66.50;;;;;;5024682;27;96139;-57
2021/08/19 03:14:21;;;;;;;2.17;1.38;;;21.80;66.30;;;;;;5027755;28;95897;-53
2021/08/19 03:16:52;;;;;;;1.00;1.00;;;21.90;66.10;;;;;;5022405;27;95859;-50
2021/08/19 03:19:23;;;;;;;1.88;1.45;;;21.90;66.00;;;;;;5027053;28;95297;-49
2021/08/19 03:21:54;;;;;;;0.88;0.88;;;22.00;65.90;;;;;;5027402;27;95783;-56
2021/08/19 03:24:25;;;;;;;1.15;1.05;;;22.10;65.80;;;;;;5026699;27;96578;-51
2021/08/19 03:26:57;;;;;;;1.10;1.00;;;22.20;65.80;;;;;;5024889;27;96572;-50
2021/08/19 03:29:29;;;;;;;1.02;0.80;;;22.30;65.60;;;;;;5026766;27;96693;-56
2021/08/19 03:32:00;;;;;;;0.88;0.88;;;22.40;65.50;;;;;;5022103;28;95561;-52
2021/08/19 03:34:31;;;;;;;1.10;1.00;;;22.30;64.20;;;;;;5006677;28;96543;-54
2021/08/19 03:37:07;;;;;;;5.18;1.23;;;22.40;64.20;;;;;;5023164;27;95854;-54
2021/08/19 03:39:38;;;;;;;1.35;1.00;;;22.40;64.20;;;;;;4999715;28;96146;-54
2021/08/19 03:42:09;;;;;;;0.82;0.80;;;22.60;64.30;;;;;;5024669;27;96612;-58
2021/08/19 03:44:40;;;;;;;1.52;1.42;;;22.60;64.10;;;;;;5012570;27;97581;-54
2021/08/19 03:47:11;;;;;;;0.88;0.88;;;22.60;60.00;;;;;;5015394;27;95635;-53
2021/08/19 03:49:42;;;;;;;1.30;1.20;;;22.40;59.90;;;;;;5024879;27;97549;-57
2021/08/19 03:52:14;;;;;;;4.70;1.05;;;22.20;60.30;;;;;;5027517;28;96248;-55
2021/08/19 03:54:45;;;;;;;2.38;0.98;;;22.00;60.50;;;;;;5025510;27;95833;-56
2021/08/19 03:57:16;;;;;;;4.25;1.85;;;21.80;60.60;;;;;;5025400;27;96631;-55
2021/08/19 03:59:47;;;;;;;1.55;1.35;;;21.60;60.90;;;;;;5023799;27;95305;-57
2021/08/19 04:02:16;;;;;;;1.97;1.23;;;21.40;61.30;;;;;;5019440;27;96879;-54
2021/08/19 04:04:47;;;;;;;1.85;1.10;;;21.20;61.90;;;;;;5024126;27;95861;-57
2021/08/19 04:07:17;;;;;;;1.17;1.10;;;21.10;62.30;;;;;;5022139;27;96013;-52
2021/08/19 04:09:47;;;;;;;1.58;1.42;;;21.00;62.60;;;;;;5023462;27;95949;-52
2021/08/19 04:12:17;;;;;;;1.58;1.13;;;20.80;63.00;;;;;;5025932;27;95878;-49
2021/08/19 04:14:47;;;;;;;3.33;1.10;;;20.70;63.70;;;;;;5025266;27;98593;-48
2021/08/19 04:17:17;;;;;;;1.03;0.97;;;20.90;64.50;;;;;;5019124;27;98512;-53
2021/08/19 04:19:48;;;;;;;;;;;21.10;64.10;;;;;;5026302;27;95948;-53
2021/08/19 04:22:19;;;;;;;0.90;0.90;;;21.20;64.10;;;;;;5027242;27;95704;-54
2021/08/19 04:24:50;;;;;;;;;;;21.30;64.30;;;;;;5026148;27;96468;-56
2021/08/19 04:27:21;;;;;;;1.42;0.90;;;21.30;63.90;;;;;;5027681;28;96328;-53
2021/08/19 04:29:52;;;;;;;;;;;21.20;62.90;;;;;;5007101;28;98588;-51
2021/08/19 04:32:23;;;;;;;2.25;1.10;;;21.00;63.70;;;;;;5002623;28;96598;-50
2021/08/19 04:34:57;;;;;;;2.67;1.10;;;20.80;64.30;;;;;;5020460;27;96438;-52
2021/08/19 04:37:27;;;;;;;2.10;1.10;;;20.70;64.60;;;;;;5025577;28;96613;-52
2021/08/19 04:39:57;;;;;;;1.73;1.10;;;20.50;65.00;;;;;;5024420;27;96937;-52
2021/08/19 04:42:30;;;;;;;1.05;0.95;;;20.50;65.20;;;;;;5025854;27;95683;-51
2021/08/19 04:45:00;;;;;;;1.92;1.17;;;20.40;65.30;;;;;;5013120;27;96567;-52
2021/08/19 04:47:30;;;;;;;1.85;1.00;;;20.40;65.50;;;;;;5021887;27;95909;-54
2021/08/19 04:50:00;;;;;;;1.17;0.90;;;20.30;65.40;;;;;;5005134;28;95918;-52
2021/08/19 04:52:31;;;;;;;1.67;1.17;;;20.30;65.50;;;;;;5023943;27;95979;-53
2021/08/19 04:55:03;;;;;;;1.30;1.10;;;20.20;65.70;;;;;;5024501;27;96568;-54
2021/08/19 04:57:34;;;;;;;1.63;1.00;;;20.20;65.80;;;;;;5025005;27;96218;-51
2021/08/19 05:00:06;;;;;;;1.50;0.93;;;20.10;65.90;;;;;;5021432;28;95901;-54
2021/08/19 05:02:36;;;;;;;2.92;0.90;;;20.10;65.90;;;;;;5025745;27;96211;-53
2021/08/19 05:05:08;;;;;;;1.25;1.15;;;20.10;66.70;;;;;;5006513;28;96686;-51
2021/08/19 05:07:39;;;;;;;1.02;0.90;;;20.10;66.00;;;;;;5037194;27;95861;-57
2021/08/19 05:10:09;;;;;;;1.02;0.90;;;20.10;66.20;;;;;;5039780;27;96023;-52
2021/08/19 05:12:39;;;;;;;0.80;0.80;;;20.10;66.20;;;;;;5024971;27;95896;-51
2021/08/19 05:15:10;;;;;;;1.10;0.88;;;20.00;66.20;;;;;;5020947;28;96504;-55
2021/08/19 05:17:41;;;;;;;1.95;1.00;;;20.10;66.20;;;;;;5023851;27;95818;-54
2021/08/19 05:20:13;;;;;;;0.70;0.70;;;20.00;66.30;;;;;;5007080;28;95867;-57
2021/08/19 05:22:45;;;;;;;1.27;1.17;;;20.00;66.30;;;;;;5023686;27;96167;-54
2021/08/19 05:25:17;;;;;;;1.48;0.90;;;20.00;67.10;;;;;;5006283;28;96975;-49
2021/08/19 05:27:48;;;;;;;1.63;1.00;;;20.00;67.20;;;;;;5025451;27;95803;-54
2021/08/19 05:30:19;;;;;;;1.70;0.70;;;20.00;67.20;;;;;;5020465;28;96237;-52
2021/08/19 05:32:50;;;;;;;1.55;1.20;;;20.00;67.30;;;;;;5024663;27;95850;-54
2021/08/19 05:35:23;;;;;;;1.10;0.80;;;20.00;67.30;;;;;;5024450;28;95820;-53
2021/08/19 05:37:53;;;;;;;0.90;0.90;;;20.00;67.40;;;;;;5023355;27;95930;-52
2021/08/19 05:40:23;;;;;;;0.82;0.70;;;20.00;68.10;;;;;;5022049;28;95755;-52
2021/08/19 05:42:58;;;;;;;0.70;0.70;;;20.00;67.50;;;;;;5022001;27;95780;-52
2021/08/19 05:45:29;;;;;;;0.88;0.88;;;20.00;67.50;;;;;;5004577;27;95834;-54
2021/08/19 05:48:03;;;;;;;1.67;0.95;;;20.00;67.60;;;;;;5022192;27;95641;-54
2021/08/19 05:50:35;;;;;;;1.50;0.90;;;20.00;67.50;;;;;;5020402;27;96507;-52
2021/08/19 05:53:08;;;;;;;0.63;0.63;;;20.00;67.20;;;;;;5024126;27;95784;-52
2021/08/19 05:55:39;;;;;;;1.15;0.80;;;20.00;67.20;;;;;;5021847;27;96002;-51
2021/08/19 05:58:14;;;;;;;0.98;0.82;;;20.00;67.20;;;;;;5021867;27;96039;-53
2021/08/19 06:00:51;;;;;;;0.80;0.77;;;19.90;67.30;;;;;;5019879;27;96010;-51
2021/08/19 06:03:21;;;;;;;1.35;0.68;;;19.90;67.30;;;;;;5023056;27;95687;-54
2021/08/19 06:05:52;;;;;;;0.95;0.80;;;19.90;67.40;;;;;;5005254;28;96691;-56
2021/08/19 06:08:23;;;;;;;0.80;0.70;;;19.90;67.50;;;;;;5023199;27;96820;-52
2021/08/19 06:10:53;;;;;;;0.73;0.60;;;19.90;67.50;;;;;;5023706;28;95754;-54
2021/08/19 06:13:24;;;;;;;0.55;0.55;;;19.90;67.60;;;;;;5022919;27;95807;-49
2021/08/19 06:15:56;;;;;;;;;;;20.10;67.70;;;;;;5019284;28;95930;-50
2021/08/19 06:18:28;;;;;;;0.60;0.60;;;20.20;67.80;;;;;;5024341;28;95651;-52
2021/08/19 06:20:59;;;;;;;1.02;0.65;;;20.30;67.70;;;;;;5023239;28;95594;-50
2021/08/19 06:23:31;;;;;;;0.70;0.65;;;20.40;67.80;;;;;;5023575;28;96778;-49
2021/08/19 06:26:02;;;;;;;0.52;0.52;;;20.50;67.80;;;;;;5023695;27;96084;-51
2021/08/19 06:28:32;;;;;;;0.55;0.55;;;20.50;67.70;;;;;;5022307;27;96027;-50
2021/08/19 06:31:04;;;;;;;2.33;0.63;;;20.60;67.40;;;;;;5015949;27;97096;-51
2021/08/19 06:33:35;;;;;;;0.95;0.88;;;20.50;65.90;;;;;;5020653;27;95282;-51
2021/08/19 06:36:07;;;;;;;0.77;0.60;;;20.40;66.10;;;;;;5021919;27;96060;-51
2021/08/19 06:38:37;;;;;;;0.88;0.57;;;20.30;66.30;;;;;;5023777;28;96765;-53
2021/08/19 06:41:07;;;;;;;0.70;0.70;;;20.20;66.80;;;;;;5023487;27;96604;-52
2021/08/19 06:43:38;;;;;;;0.85;0.80;;;20.30;67.20;;;;;;5031502;27;96147;-50
2021/08/19 06:46:08;;;;;;;0.90;0.68;;;20.30;67.30;;;;;;5004939;27;96958;-54
2021/08/19 06:48:38;;;;;;;0.70;0.70;;;20.30;66.50;;;;;;5020832;27;95906;-54
2021/08/19 06:51:10;;;;;;;0.60;0.60;;;20.30;66.70;;;;;;5036721;27;96095;-53
2021/08/19 06:53:42;;;;;;;0.93;0.80;;;20.20;66.60;;;;;;5023017;28;96108;-52
2021/08/19 06:56:14;;;;;;;;;;;20.10;66.60;;;;;;5023971;27;95981;-51
2021/08/19 06:58:44;;;;;;;0.57;0.57;;;20.10;66.80;;;;;;5024214;27;95867;-52
2021/08/19 07:01:15;;;;;;;1.10;0.80;;;20.10;66.80;;;;;;5018533;27;95360;-51
2021/08/19 07:03:45;;;;;;;1.23;0.70;;;20.10;66.90;;;;;;5022138;28;95975;-53
2021/08/19 07:06:16;;;;;;;0.70;0.65;;;20.10;66.90;;;;;;5022669;27;95919;-53
2021/08/19 07:08:46;;;;;;;1.02;0.60;;;20.00;67.00;;;;;;5023573;28;95252;-51
2021/08/19 07:11:16;;;;;;;0.98;0.70;;;20.00;67.10;;;;;;5024402;27;95997;-53
2021/08/19 07:13:47;;;;;;;1.45;0.63;;;19.90;67.10;;;;;;5023298;28;96007;-53
2021/08/19 07:16:20;;;;;;;1.00;0.60;;;19.80;67.30;;;;;;5019208;27;96409;-54
2021/08/19 07:18:54;;;;;;;1.75;0.55;;;19.80;67.50;;;;;;5022510;28;95970;-52
2021/08/19 07:21:26;;;;;;;0.60;0.60;;;19.70;67.70;;;;;;5022080;27;95863;-53
2021/08/19 07:23:58;;;;;;;0.63;0.57;;;19.70;67.70;;;;;;5023355;28;96051;-55
2021/08/19 07:26:28;;;;;;;2.05;0.70;;;19.70;67.80;;;;;;5022782;27;96436;-53
2021/08/19 07:28:59;;;;;;;0.57;0.50;;;19.70;67.90;;;;;;5022184;28;95964;-52
2021/08/19 07:31:29;;;;;;;;;;;19.70;67.80;;;;;;5018594;27;95775;-51
2021/08/19 07:34:00;;;;;;;0.88;0.77;;;19.60;67.70;;;;;;5024644;28;98006;-53
2021/08/19 07:36:30;;;;;;;0.60;0.60;;;19.60;67.90;;;;;;5003784;27;96651;-53
2021/08/19 07:39:04;;;;;;;0.60;0.60;;;19.60;67.80;;;;;;5021182;28;95813;-53
2021/08/19 07:41:38;;;;;;;1.58;1.13;;;19.50;67.90;;;;;;5022137;27;95939;-55
2021/08/19 07:44:09;;;;;;;2.65;0.88;;;19.50;68.00;;;;;;5013211;27;95389;-53
2021/08/19 07:46:40;;;;;;;1.42;0.50;;;19.50;68.50;;;;;;5008845;28;95900;-50
2021/08/19 07:49:13;;;;;;;2.00;0.77;;;19.50;68.50;;;;;;5022833;27;97761;-52
2021/08/19 07:51:45;;;;;;;0.60;0.60;;;19.60;68.40;;;;;;5022386;27;96504;-48
2021/08/19 07:54:17;;;;;;;1.25;0.90;;;19.60;68.30;;;;;;5019327;27;95706;-50
2021/08/19 07:56:48;;;;;;;0.52;0.52;;;19.60;68.20;;;;;;5021051;27;95854;-50
2021/08/19 07:59:19;;;;;;;;;;;19.60;68.10;;;;;;5026750;27;95751;-52
2021/08/19 08:01:49;;;;;;;3.40;0.82;;;19.60;68.10;;;;;;5023004;27;98565;-52
2021/08/19 08:04:19;;;;;;;1.97;0.80;;;19.50;68.10;;;;;;5024226;27;96897;-51
2021/08/19 08:06:50;;;;;;;0.85;0.70;;;19.50;68.30;;;;;;5025011;27;95916;-51
2021/08/19 08:09:20;;;;;;;2.85;0.70;;;19.50;68.20;;;;;;5024670;27;95841;-51
2021/08/19 08:11:52;;;;;;;1.20;0.75;;;19.50;68.30;;;;;;5006345;28;95760;-50
2021/08/19 08:14:23;;;;;;;1.45;0.52;;;19.40;68.30;;;;;;5025284;27;96717;-52
2021/08/19 08:16:55;;;;;;;1.13;0.70;;;19.40;68.30;;;;;;5021369;28;96910;-51
2021/08/19 08:19:27;;;;;;;0.60;0.60;;;19.40;68.50;;;;;;5026676;27;95960;-52
2021/08/19 08:21:58;;;;;;;0.95;0.50;;;19.40;68.60;;;;;;5007189;27;96874;-53
2021/08/19 08:24:29;;;;;;;0.98;0.80;;;19.30;68.60;;;;;;5024412;27;95813;-54
2021/08/19 08:27:01;;;;;;;2.67;0.90;;;19.30;68.70;;;;;;5024984;28;96038;-52
2021/08/19 08:29:33;;;;;;;1.90;0.82;;;19.30;68.70;;;;;;5024422;27;95846;-57
2021/08/19 08:32:06;;;;;;;0.75;0.75;;;19.30;68.70;;;;;;5020190;28;95913;-54
2021/08/19 08:34:39;;;;;;;1.73;0.82;;;19.20;68.70;;;;;;5027195;27;96298;-55
2021/08/19 08:37:09;;;;;;;3.05;0.90;;;19.20;68.70;;;;;;5025669;27;96489;-52
2021/08/19 08:39:40;;;;;;;2.10;0.90;;;19.20;68.70;;;;;;5024700;27;96875;-55
2021/08/19 08:42:12;;;;;;;0.75;0.75;;;19.20;68.80;;;;;;5024493;27;95965;-52
2021/08/19 08:44:44;;;;;;;0.98;0.93;;;19.10;68.80;;;;;;5010570;27;96156;-53
2021/08/19 08:47:17;;;;;;;1.20;1.10;;;19.10;69.00;;;;;;5021756;27;96016;-56
2021/08/19 08:49:53;;;;;;;1.17;1.05;;;19.10;69.10;;;;;;5025405;27;97010;-53
2021/08/19 08:52:25;;;;;;;2.22;1.05;;;19.00;69.30;;;;;;5007351;28;95840;-52
2021/08/19 08:54:56;;;;;;;1.02;0.90;;;19.00;69.10;;;;;;5026168;27;96376;-53
2021/08/19 08:57:27;;;;;;;0.70;0.70;;;19.00;69.10;;;;;;5025169;28;96348;-52
2021/08/19 08:59:58;;;;;;;0.90;0.90;;;18.90;69.30;;;;;;5023829;27;95809;-54
2021/08/19 09:02:30;;;;;;;1.13;1.00;;;18.90;69.30;;;;;;5023577;27;95797;-52
2021/08/19 09:05:21;;;;;;;0.93;0.93;;;18.80;69.40;;;;;;5005970;27;96167;-54
2021/08/19 09:08:00;;;;;;;1.13;1.02;;;18.90;69.40;;;;;;5023633;27;95852;-55
2021/08/19 09:10:34;;;;;;;1.30;1.20;;;18.80;69.30;;;;;;5022295;27;95746;-53
2021/08/19 09:13:16;;;;;;;1.00;1.00;;;18.70;69.30;;;;;;5023008;27;95839;-55
2021/08/19 09:15:47;;;;;;;1.10;1.05;;;18.70;69.30;;;;;;5017722;27;95693;-54
2021/08/19 09:18:34;;;;;;;2.85;0.90;;;18.70;69.30;;;;;;5021727;27;96571;-53
2021/08/19 09:21:23;;;;;;;1.15;0.95;;;18.80;69.30;;;;;;5022811;27;95902;-54
2021/08/19 09:24:15;;;;;;;1.27;0.90;;;18.80;69.20;;;;;;5022650;27;95798;-54
2021/08/19 09:26:48;;;;;;;1.33;1.20;;;18.80;69.10;;;;;;5022750;27;96959;-53
2021/08/19 09:29:23;;;;;;;1.60;1.50;;;18.80;69.00;;;;;;5003277;27;97268;-52
2021/08/19 09:32:07;;;;;;;1.67;1.52;;;18.80;69.10;;;;;;5017335;27;95805;-54
2021/08/19 09:34:40;;;;;;;1.75;1.08;;;18.80;69.10;;;;;;5022926;27;95707;-54
2021/08/19 09:37:20;;;;;;;2.30;1.45;;;18.90;69.30;;;;;;5024763;27;95969;-50
2021/08/19 09:40:00;;;;;;;1.40;1.30;;;18.80;69.30;;;;;;5021873;27;96037;-52
2021/08/19 09:42:40;;;;;;;1.35;1.13;;;18.80;69.30;;;;;;5006125;28;96867;-50
2021/08/19 09:45:22;;;;;;;2.40;1.13;;;18.80;69.40;;;;;;5006746;27;100880;-55
2021/08/19 09:48:05;;;;;;;1.67;1.40;;;18.80;69.50;;;;;;5021967;27;96044;-54
2021/08/19 09:50:36;;;;;;;2.55;1.63;;;18.80;69.50;;;;;;5021372;27;96559;-52
2021/08/19 09:53:23;;;;;;;1.50;1.40;;;18.80;69.70;;;;;;5021170;27;96133;-50
2021/08/19 09:55:54;;;;;;;2.35;1.40;;;18.80;69.60;;;;;;5004699;27;96205;-54
2021/08/19 09:58:33;;;;;;;2.28;1.42;;;18.70;69.60;;;;;;5021809;27;95816;-51
2021/08/19 10:01:03;;;;;;;2.70;1.42;;;18.70;69.70;;;;;;5011612;27;95981;-55
2021/08/19 10:03:34;;;;;;;3.20;2.42;;;18.60;69.90;;;;;;5024788;27;95592;-50
2021/08/19 10:06:05;;;;;;;2.80;2.53;;;18.50;70.30;;;;;;5019551;27;95375;-55
2021/08/19 10:08:36;;;;;;;3.25;2.65;;;18.40;70.40;;;;;;5025451;27;95934;-53
2021/08/19 10:11:11;;;;;;;2.17;1.98;;;18.30;70.80;;;;;;5016787;27;96680;-54
2021/08/19 10:13:43;;;;;;;3.30;2.72;;;18.20;71.20;;;;;;5000861;27;96238;-53
2021/08/19 10:16:19;;;;;;;3.83;3.15;;;18.10;71.40;;;;;;5011634;27;95835;-51
2021/08/19 10:18:52;;;;;;;2.90;2.70;;;18.00;71.60;;;;;;5023357;27;95846;-55
2021/08/19 10:21:24;;;;;;;2.58;2.38;;;18.00;71.60;;;;;;5022838;28;95981;-53
2021/08/19 10:24:03;;;;;;;3.45;2.78;;;17.90;71.60;;;;;;5023482;27;95859;-52
2021/08/19 10:26:34;;;;;;;2.92;2.60;;;17.90;71.70;;;;;;5022744;27;95891;-54
2021/08/19 10:29:05;;;;;;;3.58;3.03;;;17.90;71.80;;;;;;5019464;27;95899;-55
2021/08/19 10:31:43;;;;;;;3.30;2.83;;;17.80;71.90;;;;;;5029161;27;96067;-52
2021/08/19 10:34:19;;;;;;;3.33;2.60;;;17.70;71.90;;;;;;5017792;27;95338;-53
2021/08/19 10:36:50;;;;;;;3.22;2.78;;;17.70;72.00;;;;;;5015601;27;95899;-55
2021/08/19 10:39:20;;;;;;;3.37;2.93;;;17.60;71.90;;;;;;5023757;27;97875;-51
2021/08/19 10:41:55;;;;;;;4.70;2.88;;;17.60;72.00;;;;;;5025607;27;95838;-56
2021/08/19 10:44:33;;;;;;;7.05;3.30;;;17.60;72.00;;;;;;5013784;27;98473;-51
2021/08/19 10:47:05;;;;;;;4.10;3.50;;;17.50;72.10;;;;;;5010689;27;96527;-56
2021/08/19 10:49:41;;;;;;;4.57;3.28;;;17.50;72.10;;;;;;5008022;27;97577;-54
2021/08/19 10:52:15;;;;;;;4.40;3.60;;;17.50;72.30;;;;;;5020816;27;95881;-54
2021/08/19 10:54:47;;;;;;;4.20;3.47;;;17.40;72.30;;;;;;5020873;27;95927;-53
2021/08/19 10:57:25;;;;;;;4.30;3.60;;;17.40;72.40;;;;;;5019242;27;98245;-52
2021/08/19 11:00:10;;;;;;;4.32;3.38;;;17.30;72.40;;;;;;5020068;27;95357;-55
2021/08/19 11:02:55;;;;;;;5.07;3.50;;;17.30;72.60;;;;;;5019496;27;96214;-54
2021/08/19 11:05:27;;;;;;;4.97;3.90;;;17.20;72.50;;;;;;5017841;27;95943;-53
2021/08/19 11:07:59;;;;;;;3.83;3.28;;;17.10;72.60;;;;;;5029964;27;96018;-54
2021/08/19 11:10:38;;;;;;;4.00;3.60;;;17.10;72.70;;;;;;5015342;27;95773;-56
2021/08/19 11:13:12;;;;;;;4.20;3.25;;;17.10;72.90;;;;;;5020861;27;96313;-54
2021/08/19 11:15:48;;;;;;;3.83;3.13;;;17.00;72.80;;;;;;5019546;27;95947;-54
2021/08/19 11:18:26;;;;;;;4.50;3.30;;;17.00;72.90;;;;;;5028465;28;95347;-54
2021/08/19 11:20:58;;;;;;;6.55;4.28;;;16.90;73.00;;;;;;5030048;27;95790;-55
2021/08/19 11:23:35;;;;;;;4.63;3.45;;;16.90;73.00;;;;;;5028048;28;95930;-52
2021/08/19 11:26:11;;;;;;;4.50;3.67;;;16.90;73.10;;;;;;5028768;27;96074;-55
2021/08/19 11:28:49;;;;;;;4.53;3.65;;;16.80;73.20;;;;;;5028496;28;95491;-55
2021/08/19 11:31:24;;;;;;;4.10;3.60;;;16.80;73.30;;;;;;5022303;27;96062;-54
2021/08/19 11:34:05;;;;;;;5.22;3.47;;;16.70;73.40;;;;;;5029975;28;96389;-53
2021/08/19 11:36:37;;;;;;;3.70;3.00;;;16.70;73.40;;;;;;5031622;27;95852;-55
2021/08/19 11:39:08;;;;;;;4.20;3.78;;;16.70;73.40;;;;;;5031787;28;95740;-54
2021/08/19 11:41:39;;;;;;;4.35;3.75;;;16.70;73.40;;;;;;5025909;27;95330;-52
2021/08/19 11:44:10;;;;;;;3.70;3.28;;;16.60;73.30;;;;;;5022709;28;95964;-54
2021/08/19 11:46:40;;;;;;;5.18;3.75;;;16.60;73.40;;;;;;5017756;27;97572;-55
2021/08/19 11:49:14;;;;;;;4.18;3.42;;;16.60;73.50;;;;;;5045310;27;95693;-53
2021/08/19 11:51:47;;;;;;;4.10;3.70;;;16.50;73.60;;;;;;5047028;27;95689;-51
2021/08/19 11:54:17;;;;;;;4.47;3.50;;;16.50;73.70;;;;;;5028574;28;95886;-56
2021/08/19 11:56:48;;;;;;;3.63;3.28;;;16.50;73.70;;;;;;5031079;27;95881;-55
2021/08/19 11:59:20;;;;;;;5.25;3.83;;;16.40;73.70;;;;;;5031864;28;95842;-52
2021/08/19 12:01:51;;;;;;;;;;;16.30;73.60;;;;;;5027287;27;95983;-53
2021/08/19 12:05:00;;;;;;;4.05;3.65;;;16.40;73.80;;;;;;5029901;28;96589;-55
2021/08/19 12:07:30;;;;;;;3.78;3.38;;;16.30;73.80;;;;;;5030398;27;95336;-52
2021/08/19 12:10:02;;;;;;;4.20;3.67;;;16.30;73.90;;;;;;5031066;27;95304;-53
2021/08/19 12:12:36;;;;;;;3.90;3.42;;;16.20;73.90;;;;;;5032412;27;95735;-54
2021/08/19 12:15:08;;;;;;;4.50;3.75;;;16.20;73.90;;;;;;5031151;28;95871;-55
2021/08/19 12:17:39;;;;;;;4.35;3.75;;;16.20;73.90;;;;;;5026658;27;96172;-53
2021/08/19 12:20:20;;;;;;;4.63;3.80;;;16.10;73.90;;;;;;5029742;28;97858;-51
2021/08/19 12:22:51;;;;;;;3.42;3.13;;;16.10;74.00;;;;;;5030225;27;95912;-62
2021/08/19 12:25:30;;;;;;;4.07;3.58;;;16.10;74.00;;;;;;5030986;28;96940;-54
2021/08/19 12:28:11;;;;;;;3.47;2.88;;;16.10;74.70;;;;;;5031149;27;95927;-52
2021/08/19 12:30:59;;;;;;;4.43;3.90;;;16.00;74.00;;;;;;5026670;28;95781;-53
2021/08/19 12:33:39;;;;;;;4.00;3.60;;;16.00;74.10;;;;;;5045957;27;95807;-52
2021/08/19 12:36:22;;;;;;;3.85;3.45;;;15.90;74.10;;;;;;5044636;27;96019;-54
2021/08/19 12:38:54;;;;;;;4.40;3.90;;;15.90;74.20;;;;;;5029754;27;95783;-53
2021/08/19 12:41:26;;;;;;;4.47;3.38;;;15.90;74.20;;;;;;5030797;28;95899;-52
2021/08/19 12:44:09;;;;;;;4.00;3.60;;;15.80;74.20;;;;;;5000838;28;95975;-52
2021/08/19 12:46:44;;;;;;;4.22;3.83;;;15.80;74.20;;;;;;5018525;28;96124;-53
2021/08/19 12:49:26;;;;;;;4.43;4.03;;;15.80;74.20;;;;;;5030492;27;95833;-53
2021/08/19 12:52:25;;;;;;;4.07;3.47;;;15.80;74.20;;;;;;5030169;27;95734;-55
2021/08/19 12:55:12;;;;;;;5.10;4.30;;;15.70;74.30;;;;;;5028907;27;95994;-55
2021/08/19 12:57:51;;;;;;;4.32;3.90;;;15.70;74.30;;;;;;5029110;28;95967;-51
2021/08/19 13:00:25;;;;;;;5.13;4.20;;;15.60;74.30;;;;;;5024917;27;96134;-51
2021/08/19 13:02:57;;;;;;;4.35;3.95;;;15.60;74.40;;;;;;5028643;28;95924;-56
2021/08/19 13:05:29;;;;;;;5.15;4.13;;;15.60;74.40;;;;;;5030649;27;95605;-50
2021/08/19 13:08:02;;;;;;;4.68;4.07;;;15.60;74.50;;;;;;5030139;28;95810;-53
2021/08/19 13:10:33;;;;;;;4.50;3.90;;;15.50;74.50;;;;;;5027103;27;95356;-53
2021/08/19 13:13:06;;;;;;;3.80;3.50;;;15.50;74.40;;;;;;5020244;28;95968;-51
2021/08/19 13:15:37;;;;;;;5.00;4.32;;;15.50;74.60;;;;;;5026220;27;95872;-54
2021/08/19 13:18:08;;;;;;;5.40;4.18;;;15.40;74.50;;;;;;5020067;28;95938;-52